createdAt,value
2023-05-19T00:01:10.672Z,78.41
2023-05-19T00:03:37.679Z,77.86
2023-05-19T00:06:05.081Z,78.80
2023-05-19T00:08:31.885Z,80.34
2023-05-19T00:10:58.766Z,76.06
2023-05-19T00:13:25.782Z,79.02
2023-05-19T00:15:52.972Z,75.05
2023-05-19T00:18:22.254Z,75.75
2023-05-19T00:20:49.321Z,77.59
2023-05-19T00:23:15.969Z,77.96
2023-05-19T00:25:42.584Z,79.09
2023-05-19T00:28:09.228Z,79.61
2023-05-19T00:30:35.870Z,79.68
2023-05-19T00:33:02.556Z,79.33
2023-05-19T00:35:29.279Z,74.20
2023-05-19T00:37:55.903Z,73.95
2023-05-19T00:40:23.664Z,72.21
2023-05-19T00:42:50.320Z,76.11
2023-05-19T00:45:16.973Z,73.75
2023-05-19T00:47:43.660Z,77.51
2023-05-19T00:50:10.500Z,76.34
2023-05-19T00:52:37.141Z,73.80
2023-05-19T00:55:04.047Z,74.36
2023-05-19T00:57:30.705Z,78.65
2023-05-19T00:59:57.349Z,75.95
2023-05-19T01:02:24.095Z,80.05
2023-05-19T01:04:50.823Z,75.73
2023-05-19T01:07:17.506Z,79.09
2023-05-19T01:09:44.605Z,78.87
2023-05-19T01:12:11.256Z,79.71
2023-05-19T01:14:37.906Z,80.33
2023-05-19T01:17:08.004Z,78.08
2023-05-19T01:19:53.319Z,79.32
2023-05-19T01:22:48.735Z,79.70
2023-05-19T01:26:00.607Z,81.71
2023-05-19T01:29:11.637Z,76.97
2023-05-19T01:31:38.576Z,79.45
2023-05-19T01:34:06.785Z,79.72
2023-05-19T01:36:33.773Z,79.34
2023-05-19T01:39:02.184Z,80.83
2023-05-19T01:41:30.107Z,79.38
2023-05-19T01:43:57.042Z,81.42
2023-05-19T01:46:24.455Z,82.04
2023-05-19T01:48:52.411Z,77.78
2023-05-19T01:51:19.110Z,77.72
2023-05-19T01:53:45.800Z,74.50
2023-05-19T01:56:16.152Z,75.29
2023-05-19T01:58:47.902Z,75.32
2023-05-19T02:01:30.220Z,76.09
2023-05-19T02:04:28.107Z,77.10
2023-05-19T02:07:13.859Z,76.69
2023-05-19T02:10:01.226Z,75.34
2023-05-19T02:12:40.722Z,75.80
2023-05-19T02:15:22.090Z,77.20
2023-05-19T02:17:50.272Z,77.15
2023-05-19T02:20:17.549Z,77.86
2023-05-19T02:22:44.738Z,78.04
2023-05-19T02:25:11.503Z,78.23
2023-05-19T02:27:38.988Z,77.17
2023-05-19T02:30:06.870Z,77.49
2023-05-19T02:32:33.897Z,78.83
2023-05-19T02:35:00.598Z,79.49
2023-05-19T02:37:27.244Z,79.32
2023-05-19T02:39:54.311Z,81.08
2023-05-19T02:42:21.310Z,77.78
2023-05-19T02:44:48.243Z,78.08
2023-05-19T02:47:14.979Z,79.92
2023-05-19T02:49:41.635Z,77.19
2023-05-19T02:52:08.370Z,78.92
2023-05-19T02:54:35.112Z,78.97
2023-05-19T02:57:02.055Z,75.64
2023-05-19T02:59:28.786Z,76.17
2023-05-19T03:01:57.368Z,75.89
2023-05-19T03:04:24.031Z,74.15
2023-05-19T03:06:50.733Z,77.60
2023-05-19T03:09:17.473Z,74.82
2023-05-19T03:11:44.121Z,74.72
2023-05-19T03:14:10.762Z,77.87
2023-05-19T03:16:37.564Z,78.48
2023-05-19T03:19:04.328Z,74.75
2023-05-19T03:21:31.015Z,75.40
2023-05-19T03:23:57.666Z,74.81
2023-05-19T03:26:24.730Z,74.99
2023-05-19T03:28:51.400Z,74.95
2023-05-19T03:31:18.198Z,75.51
2023-05-19T03:33:44.887Z,75.19
2023-05-19T03:36:11.621Z,74.00
2023-05-19T03:38:38.253Z,75.19
2023-05-19T03:41:04.950Z,76.02
2023-05-19T03:43:31.594Z,76.79
2023-05-19T03:45:58.336Z,75.94
2023-05-19T03:48:25.050Z,75.91
2023-05-19T03:50:51.699Z,75.79
2023-05-19T03:53:18.384Z,75.65
2023-05-19T03:55:44.997Z,76.29
2023-05-19T03:58:11.657Z,77.33
2023-05-19T04:00:38.272Z,75.47
2023-05-19T04:03:05.009Z,76.44
2023-05-19T04:05:31.823Z,76.05
2023-05-19T04:07:58.449Z,75.57
2023-05-19T04:10:25.118Z,77.47
2023-05-19T04:12:51.763Z,76.71
2023-05-19T04:15:18.428Z,74.99
2023-05-19T04:17:45.141Z,76.20
2023-05-19T04:20:12.355Z,76.33
2023-05-19T04:22:39.002Z,77.64
2023-05-19T04:25:06.141Z,76.27
2023-05-19T04:27:32.789Z,76.09
2023-05-19T04:29:59.546Z,74.46
2023-05-19T04:32:26.256Z,76.77
2023-05-19T04:34:52.918Z,74.69
2023-05-19T04:37:19.580Z,77.23
2023-05-19T04:39:46.191Z,75.52
2023-05-19T04:42:12.839Z,77.41
2023-05-19T04:44:39.586Z,75.45
2023-05-19T04:47:09.326Z,76.24
2023-05-19T04:49:36.346Z,75.27
2023-05-19T04:52:02.973Z,76.47
2023-05-19T04:54:29.595Z,76.19
2023-05-19T04:56:56.237Z,75.66
2023-05-19T04:59:22.899Z,76.37
2023-05-19T05:01:49.668Z,75.43
2023-05-19T05:04:16.321Z,73.60
2023-05-19T05:06:42.930Z,75.30
2023-05-19T05:09:09.570Z,74.90
2023-05-19T05:11:36.561Z,74.55
2023-05-19T05:14:03.410Z,74.55
2023-05-19T05:16:30.343Z,73.13
2023-05-19T05:18:57.360Z,73.90
2023-05-19T05:21:24.372Z,74.30
2023-05-19T05:23:51.894Z,72.66
2023-05-19T05:26:19.629Z,70.72
2023-05-19T05:28:46.410Z,70.80
2023-05-19T05:31:13.047Z,69.20
2023-05-19T05:33:39.819Z,69.28
2023-05-19T05:36:06.955Z,66.85
2023-05-19T05:38:33.638Z,69.37
2023-05-19T05:41:00.296Z,64.58
2023-05-19T05:43:26.949Z,65.68
2023-05-19T05:45:53.644Z,69.43
2023-05-19T05:48:20.738Z,67.19
2023-05-19T05:50:48.522Z,67.59
2023-05-19T05:53:18.711Z,66.70
2023-05-19T05:55:46.168Z,66.61
2023-05-19T05:58:12.842Z,62.29
2023-05-19T06:00:39.575Z,61.49
2023-05-19T06:03:06.452Z,64.20
2023-05-19T06:05:33.228Z,64.27
2023-05-19T06:07:59.905Z,61.93
2023-05-19T06:10:26.625Z,63.10
2023-05-19T06:12:53.364Z,62.50
2023-05-19T06:15:21.485Z,62.28
2023-05-19T06:17:48.393Z,59.51
2023-05-19T06:20:15.048Z,57.58
2023-05-19T06:22:41.724Z,53.69
2023-05-19T06:25:08.874Z,52.61
2023-05-19T06:27:35.810Z,48.65
2023-05-19T06:30:02.921Z,48.50
2023-05-19T06:32:29.651Z,46.74
2023-05-19T06:34:56.333Z,45.89
2023-05-19T06:37:23.416Z,43.37
2023-05-19T06:39:53.693Z,44.12
2023-05-19T06:42:20.749Z,45.07
2023-05-19T06:44:49.713Z,45.79
2023-05-19T06:47:17.318Z,44.39
2023-05-19T06:49:47.200Z,43.72
2023-05-19T06:52:13.863Z,42.85
2023-05-19T06:54:40.512Z,42.49
2023-05-19T06:57:07.158Z,40.13
2023-05-19T06:59:33.793Z,39.35
2023-05-19T07:02:00.530Z,38.44
2023-05-19T07:04:27.434Z,38.73
2023-05-19T07:06:54.119Z,38.74
2023-05-19T07:09:20.833Z,39.12
2023-05-19T07:11:47.940Z,40.07
2023-05-19T07:14:14.612Z,41.93
2023-05-19T07:16:41.401Z,41.68
2023-05-19T07:19:08.230Z,40.65
2023-05-19T07:21:34.912Z,41.07
2023-05-19T07:24:01.560Z,41.03
2023-05-19T07:26:29.069Z,41.79
2023-05-19T07:28:55.954Z,41.82
2023-05-19T07:31:22.746Z,40.50
2023-05-19T07:33:49.562Z,38.48
2023-05-19T07:36:18.850Z,39.93
2023-05-19T07:38:48.812Z,40.59
2023-05-19T07:41:15.565Z,39.24
2023-05-19T07:43:42.975Z,40.03
2023-05-19T07:46:09.774Z,40.43
2023-05-19T07:48:36.997Z,39.32
2023-05-19T07:51:03.874Z,39.97
2023-05-19T07:53:30.571Z,37.87
2023-05-19T07:56:02.167Z,38.51
2023-05-19T07:58:31.256Z,38.43
2023-05-19T08:00:58.704Z,38.66
2023-05-19T08:03:26.437Z,36.66
2023-05-19T08:05:53.241Z,38.05
2023-05-19T08:08:19.913Z,36.08
2023-05-19T08:10:46.570Z,35.92
2023-05-19T08:13:13.278Z,37.14
2023-05-19T08:15:39.967Z,37.20
2023-05-19T08:18:06.772Z,37.60
2023-05-19T08:20:33.710Z,39.81
2023-05-19T08:23:00.516Z,41.32
2023-05-19T08:25:27.171Z,43.34
2023-05-19T08:27:53.805Z,43.41
2023-05-19T08:30:20.497Z,42.87
2023-05-19T08:32:47.258Z,44.20
2023-05-19T08:35:16.997Z,44.72
2023-05-19T08:37:43.630Z,46.67
2023-05-19T08:40:16.588Z,45.42
2023-05-19T08:42:43.912Z,43.91
2023-05-19T08:45:10.645Z,44.83
2023-05-19T08:47:37.670Z,45.36
2023-05-19T08:50:06.530Z,46.48
2023-05-19T08:52:56.332Z,39.81
2023-05-19T08:55:32.118Z,38.28
2023-05-19T08:58:00.733Z,42.11
2023-05-19T09:00:28.522Z,43.31
2023-05-19T09:03:01.030Z,44.70
2023-05-19T09:05:33.439Z,45.62
2023-05-19T09:08:00.451Z,44.91
2023-05-19T09:10:28.440Z,45.75
2023-05-19T09:12:56.069Z,45.26
2023-05-19T09:15:27.028Z,46.00
2023-05-19T09:18:18.999Z,45.90
2023-05-19T09:20:46.220Z,46.28
2023-05-19T09:23:14.192Z,46.96
2023-05-19T09:25:48.717Z,47.42
2023-05-19T09:28:15.391Z,46.78
2023-05-19T09:30:42.029Z,44.95
2023-05-19T09:33:08.730Z,45.42
2023-05-19T09:35:35.827Z,45.61
2023-05-19T09:38:02.511Z,46.58
2023-05-19T09:40:29.318Z,47.19
2023-05-19T09:42:58.982Z,46.86
2023-05-19T09:45:26.991Z,48.52
2023-05-19T09:47:53.727Z,49.97
2023-05-19T09:50:20.420Z,47.98
2023-05-19T09:52:47.840Z,49.30
2023-05-19T09:55:14.477Z,50.03
2023-05-19T09:57:41.130Z,47.20
2023-05-19T10:00:09.625Z,47.80
2023-05-19T10:02:36.795Z,48.27
2023-05-19T10:05:03.728Z,47.73
2023-05-19T10:07:30.785Z,46.58
2023-05-19T10:09:58.744Z,45.99
2023-05-19T10:12:26.368Z,45.44
2023-05-19T10:14:54.428Z,45.13
2023-05-19T10:17:21.331Z,44.47
2023-05-19T10:19:54.581Z,44.73
2023-05-19T10:22:21.266Z,44.02
2023-05-19T10:24:48.080Z,44.68
2023-05-19T10:27:15.345Z,44.40
2023-05-19T10:29:45.912Z,44.18
2023-05-19T10:32:16.352Z,42.89
2023-05-19T10:34:55.205Z,45.23
2023-05-19T10:37:37.614Z,43.64
2023-05-19T10:40:11.104Z,44.82
2023-05-19T10:42:45.263Z,44.12
2023-05-19T10:45:20.136Z,43.34
2023-05-19T10:47:46.876Z,44.17
2023-05-19T10:50:15.684Z,42.32
2023-05-19T10:52:42.448Z,42.69
2023-05-19T10:55:10.309Z,42.34
2023-05-19T10:57:36.965Z,42.54
2023-05-19T11:00:06.478Z,43.71
2023-05-19T11:02:43.434Z,43.24
2023-05-19T11:05:15.131Z,42.84
2023-05-19T11:07:42.544Z,42.50
2023-05-19T11:10:09.649Z,43.19
2023-05-19T11:12:44.914Z,42.86
2023-05-19T11:15:13.323Z,42.52
2023-05-19T11:17:40.481Z,42.28
2023-05-19T11:20:08.815Z,41.38
2023-05-19T11:22:35.470Z,42.22
2023-05-19T11:25:02.133Z,42.17
2023-05-19T11:27:33.369Z,42.14
2023-05-19T11:30:01.755Z,41.79
2023-05-19T11:32:31.082Z,41.61
2023-05-19T11:34:58.006Z,42.36
2023-05-19T11:37:24.758Z,42.33
2023-05-19T11:39:54.419Z,43.23
2023-05-19T11:42:21.138Z,43.25
2023-05-19T11:44:48.024Z,46.55
2023-05-19T11:47:15.584Z,44.99
2023-05-19T11:49:47.933Z,45.58
2023-05-19T11:52:15.405Z,47.38
2023-05-19T11:54:42.231Z,46.58
2023-05-19T11:57:12.028Z,49.12
2023-05-19T11:59:38.601Z,48.07
2023-05-19T12:02:24.807Z,46.57
2023-05-19T12:04:52.212Z,46.06
2023-05-19T12:07:22.839Z,46.14
2023-05-19T12:09:52.216Z,47.88
2023-05-19T12:12:20.237Z,47.11
2023-05-19T12:14:47.540Z,47.12
2023-05-19T12:17:16.420Z,47.12
2023-05-19T12:19:43.842Z,46.19
2023-05-19T12:22:10.913Z,47.16
2023-05-19T12:24:38.438Z,48.69
2023-05-19T12:27:20.923Z,48.46
2023-05-19T12:29:53.588Z,49.52
2023-05-19T12:32:27.291Z,47.95
2023-05-19T12:34:56.020Z,46.55
2023-05-19T12:37:22.916Z,46.81
2023-05-19T12:39:50.113Z,47.70
2023-05-19T12:42:17.045Z,48.22
2023-05-19T12:44:48.594Z,46.61
2023-05-19T12:47:16.585Z,48.05
2023-05-19T12:50:06.188Z,46.54
2023-05-19T12:52:34.848Z,47.44
2023-05-19T12:55:03.448Z,47.57
2023-05-19T12:57:30.271Z,47.84
2023-05-19T13:00:19.973Z,45.67
2023-05-19T13:03:02.527Z,45.54
2023-05-19T13:05:31.174Z,46.49
2023-05-19T13:08:02.630Z,46.67
2023-05-19T13:10:29.741Z,46.84
2023-05-19T13:12:57.669Z,45.84
2023-05-19T13:15:25.433Z,46.15
2023-05-19T13:17:53.141Z,47.50
2023-05-19T13:20:21.695Z,47.44
2023-05-19T13:22:48.722Z,47.40
2023-05-19T13:25:15.448Z,46.99
2023-05-19T13:27:42.292Z,46.16
2023-05-19T13:30:09.287Z,47.31
2023-05-19T13:32:36.028Z,47.49
2023-05-19T13:35:02.738Z,46.85
2023-05-19T13:37:29.523Z,47.85
2023-05-19T13:39:57.565Z,45.83
2023-05-19T13:42:24.410Z,45.49
2023-05-19T13:44:55.003Z,44.16
2023-05-19T13:47:23.453Z,43.54
2023-05-19T13:49:50.395Z,43.20
2023-05-19T13:52:17.516Z,44.62
2023-05-19T13:54:48.636Z,44.84
2023-05-19T13:57:16.344Z,43.28
2023-05-19T14:00:00.152Z,43.17
2023-05-19T14:02:28.373Z,45.40
2023-05-19T14:04:55.189Z,44.71
2023-05-19T14:07:21.849Z,45.51
2023-05-19T14:09:48.489Z,44.83
2023-05-19T14:12:15.282Z,45.29
2023-05-19T14:14:41.930Z,44.99
2023-05-19T14:17:08.674Z,43.85
2023-05-19T14:19:35.505Z,44.22
2023-05-19T14:22:02.153Z,44.49
2023-05-19T14:24:29.000Z,44.69
2023-05-19T14:26:55.630Z,45.19
2023-05-19T14:29:22.374Z,45.08
2023-05-19T14:31:49.130Z,46.93
2023-05-19T14:34:15.764Z,45.51
2023-05-19T14:36:42.388Z,44.73
2023-05-19T14:39:09.078Z,44.96
2023-05-19T14:41:35.726Z,46.87
2023-05-19T14:44:02.379Z,46.71
2023-05-19T14:46:29.073Z,48.12
2023-05-19T14:48:55.757Z,47.66
2023-05-19T14:51:22.514Z,48.47
2023-05-19T14:53:49.153Z,48.21
2023-05-19T14:56:15.959Z,48.58
2023-05-19T14:58:42.620Z,49.47
2023-05-19T15:01:09.263Z,49.33
2023-05-19T15:03:36.064Z,49.13
2023-05-19T15:06:02.719Z,49.44
2023-05-19T15:08:29.359Z,49.58
2023-05-19T15:10:56.001Z,49.97
2023-05-19T15:13:22.686Z,48.95
2023-05-19T15:15:58.919Z,48.74
2023-05-19T15:18:31.727Z,47.81
2023-05-19T15:20:58.358Z,49.34
2023-05-19T15:23:25.002Z,49.71
2023-05-19T15:25:51.711Z,50.13
2023-05-19T15:28:19.466Z,49.83
2023-05-19T15:30:46.220Z,50.40
2023-05-19T15:33:12.958Z,50.90
2023-05-19T15:35:39.632Z,52.13
2023-05-19T15:38:06.373Z,52.28
2023-05-19T15:40:33.920Z,51.96
2023-05-19T15:43:01.163Z,51.82
2023-05-19T15:45:28.025Z,51.93
2023-05-19T15:47:54.757Z,51.58
2023-05-19T15:50:21.412Z,51.46
2023-05-19T15:52:48.173Z,52.75
2023-05-19T15:55:14.873Z,53.39
2023-05-19T15:57:41.503Z,54.39
2023-05-19T16:00:08.705Z,53.43
2023-05-19T16:02:35.461Z,54.75
2023-05-19T16:05:02.220Z,55.60
2023-05-19T16:07:28.886Z,55.75
2023-05-19T16:09:55.598Z,56.22
2023-05-19T16:12:22.231Z,56.71
2023-05-19T16:14:48.876Z,56.89
2023-05-19T16:17:15.541Z,56.60
2023-05-19T16:19:42.230Z,56.36
2023-05-19T16:22:08.877Z,56.08
2023-05-19T16:24:35.584Z,56.35
2023-05-19T16:27:05.228Z,57.70
2023-05-19T16:29:31.854Z,57.49
2023-05-19T16:32:04.193Z,56.92
2023-05-19T16:34:30.994Z,57.34
2023-05-19T16:36:57.632Z,57.07
2023-05-19T16:39:24.513Z,56.86
2023-05-19T16:41:53.754Z,56.48
2023-05-19T16:44:20.446Z,56.95
2023-05-19T16:46:47.165Z,57.81
2023-05-19T16:49:13.813Z,57.41
2023-05-19T16:51:40.444Z,58.10
2023-05-19T16:54:07.277Z,57.28
2023-05-19T16:56:36.591Z,57.61
2023-05-19T16:59:03.538Z,57.45
2023-05-19T17:01:34.320Z,57.48
2023-05-19T17:04:01.019Z,57.80
2023-05-19T17:06:27.766Z,58.09
2023-05-19T17:08:54.525Z,57.75
2023-05-19T17:11:21.221Z,58.20
2023-05-19T17:13:47.858Z,58.96
2023-05-19T17:16:14.536Z,58.85
2023-05-19T17:18:41.409Z,58.50
2023-05-19T17:21:08.136Z,57.03
2023-05-19T17:23:34.836Z,56.65
2023-05-19T17:26:01.451Z,57.79
2023-05-19T17:28:28.104Z,57.91
2023-05-19T17:30:55.114Z,57.73
2023-05-19T17:33:21.869Z,56.89
2023-05-19T17:35:48.571Z,56.83
2023-05-19T17:38:15.220Z,55.67
2023-05-19T17:40:42.144Z,55.92
2023-05-19T17:43:09.040Z,55.56
2023-05-19T17:45:35.656Z,56.44
2023-05-19T17:48:02.434Z,57.75
2023-05-19T17:50:29.184Z,58.33
2023-05-19T17:52:56.071Z,59.35
2023-05-19T17:55:23.148Z,58.68
2023-05-19T17:57:49.999Z,59.47
2023-05-19T18:00:16.942Z,58.89
2023-05-19T18:02:44.134Z,58.50
2023-05-19T18:05:11.397Z,57.02
2023-05-19T18:07:39.742Z,57.16
2023-05-19T18:10:07.209Z,57.77
2023-05-19T18:12:33.832Z,57.79
2023-05-19T18:15:00.499Z,58.02
2023-05-19T18:17:27.354Z,58.26
2023-05-19T18:19:54.148Z,58.28
2023-05-19T18:22:20.821Z,59.38
2023-05-19T18:24:47.475Z,58.93
2023-05-19T18:27:14.122Z,59.63
2023-05-19T18:29:40.739Z,59.88
2023-05-19T18:32:07.824Z,60.95
2023-05-19T18:34:34.549Z,61.24
2023-05-19T18:37:01.156Z,60.29
2023-05-19T18:39:29.321Z,60.87
2023-05-19T18:41:56.139Z,61.83
2023-05-19T18:44:23.049Z,61.98
2023-05-19T18:46:49.733Z,61.71
2023-05-19T18:49:16.393Z,62.47
2023-05-19T18:51:43.118Z,62.60
2023-05-19T18:54:09.780Z,62.75
2023-05-19T18:56:36.532Z,64.13
2023-05-19T18:59:03.213Z,64.02
2023-05-19T19:01:29.930Z,63.37
2023-05-19T19:03:56.693Z,63.50
2023-05-19T19:06:23.422Z,63.93
2023-05-19T19:08:50.192Z,64.29
2023-05-19T19:11:16.838Z,65.05
2023-05-19T19:13:43.487Z,64.62
2023-05-19T19:16:10.337Z,64.63
2023-05-19T19:18:37.045Z,64.94
2023-05-19T19:21:04.427Z,65.39
2023-05-19T19:23:31.636Z,65.64
2023-05-19T19:25:58.331Z,66.17
2023-05-19T19:28:24.978Z,65.75
2023-05-19T19:30:54.188Z,66.31
2023-05-19T19:33:23.717Z,66.16
2023-05-19T19:35:50.345Z,66.59
2023-05-19T19:38:16.976Z,66.23
2023-05-19T19:40:43.617Z,65.48
2023-05-19T19:43:10.275Z,66.13
2023-05-19T19:45:36.962Z,65.92
2023-05-19T19:48:03.717Z,66.51
2023-05-19T19:50:30.415Z,66.99
2023-05-19T19:52:57.066Z,66.94
2023-05-19T19:55:23.721Z,67.47
2023-05-19T19:57:50.423Z,67.93
2023-05-19T20:00:17.728Z,67.66
2023-05-19T20:03:02.814Z,68.90
2023-05-19T20:05:30.858Z,68.94
2023-05-19T20:07:57.545Z,69.11
2023-05-19T20:10:24.191Z,69.92
2023-05-19T20:12:50.980Z,69.69
2023-05-19T20:15:17.750Z,70.11
2023-05-19T20:17:45.158Z,70.44
2023-05-19T20:20:12.367Z,70.62
2023-05-19T20:22:39.232Z,70.26
2023-05-19T20:25:06.439Z,70.22
2023-05-19T20:27:33.138Z,69.75
2023-05-19T20:29:59.793Z,70.27
2023-05-19T20:32:26.578Z,70.28
2023-05-19T20:34:53.275Z,69.90
2023-05-19T20:37:19.905Z,70.22
2023-05-19T20:39:46.583Z,70.42
2023-05-19T20:42:13.275Z,70.39
2023-05-19T20:44:40.000Z,70.39
2023-05-19T20:47:06.643Z,70.93
2023-05-19T20:49:33.474Z,70.84
2023-05-19T20:52:00.170Z,70.84
2023-05-19T20:54:29.421Z,70.49
2023-05-19T20:56:56.177Z,70.18
2023-05-19T20:59:22.845Z,70.75
2023-05-19T21:01:49.541Z,70.09
2023-05-19T21:04:16.334Z,70.83
2023-05-19T21:06:43.002Z,71.04
2023-05-19T21:09:09.635Z,71.61
2023-05-19T21:11:36.283Z,72.33
2023-05-19T21:14:02.952Z,71.75
2023-05-19T21:16:29.810Z,72.25
2023-05-19T21:18:57.975Z,71.71
2023-05-19T21:21:24.870Z,71.82
2023-05-19T21:23:51.709Z,71.84
2023-05-19T21:26:18.467Z,72.00
2023-05-19T21:28:45.104Z,72.71
2023-05-19T21:31:11.883Z,72.04
2023-05-19T21:33:38.581Z,72.15
2023-05-19T21:36:05.395Z,72.48
2023-05-19T21:38:32.033Z,72.07
2023-05-19T21:40:58.743Z,71.82
2023-05-19T21:43:25.401Z,72.99
2023-05-19T21:45:52.098Z,73.25
2023-05-19T21:48:18.817Z,73.69
2023-05-19T21:50:45.534Z,73.61
2023-05-19T21:53:12.199Z,73.71
2023-05-19T21:55:38.836Z,74.03
2023-05-19T21:58:05.486Z,74.24
2023-05-19T22:00:32.403Z,74.19
2023-05-19T22:02:59.475Z,74.58
2023-05-19T22:05:26.172Z,74.64
2023-05-19T22:07:52.796Z,74.73
2023-05-19T22:10:19.546Z,74.67
2023-05-19T22:12:46.171Z,74.74
2023-05-19T22:15:12.874Z,74.84
2023-05-19T22:17:39.579Z,75.21
2023-05-19T22:20:06.916Z,74.81
2023-05-19T22:22:34.135Z,74.91
2023-05-19T22:25:02.373Z,74.78
2023-05-19T22:27:29.174Z,74.84
2023-05-19T22:29:55.867Z,74.90
2023-05-19T22:32:22.486Z,75.59
2023-05-19T22:34:49.186Z,76.00
2023-05-19T22:37:15.876Z,76.54
2023-05-19T22:39:43.181Z,76.10
2023-05-19T22:42:09.920Z,75.75
2023-05-19T22:44:36.587Z,75.40
2023-05-19T22:47:03.278Z,76.25
2023-05-19T22:49:29.960Z,76.51
2023-05-19T22:51:56.644Z,76.43
2023-05-19T22:54:25.708Z,76.48
2023-05-19T22:56:52.320Z,76.80
2023-05-19T22:59:18.946Z,76.98
2023-05-19T23:01:45.720Z,76.37
2023-05-19T23:04:12.400Z,77.05
2023-05-19T23:06:39.244Z,76.74
2023-05-19T23:09:05.871Z,76.32
2023-05-19T23:11:32.532Z,77.11
2023-05-19T23:13:59.269Z,76.95
2023-05-19T23:16:25.965Z,77.19
2023-05-19T23:18:52.769Z,77.59
2023-05-19T23:21:19.442Z,77.96
2023-05-19T23:23:46.302Z,77.82
2023-05-19T23:26:13.021Z,78.34
2023-05-19T23:28:41.721Z,77.85
2023-05-19T23:31:08.634Z,77.52
2023-05-19T23:33:35.301Z,77.33
2023-05-19T23:36:06.394Z,77.38
2023-05-19T23:38:33.225Z,77.99
2023-05-19T23:40:59.921Z,77.74
2023-05-19T23:43:26.598Z,77.74
2023-05-19T23:45:53.246Z,78.09
2023-05-19T23:48:19.872Z,77.86
2023-05-19T23:50:46.506Z,77.99
2023-05-19T23:53:13.187Z,77.48
2023-05-19T23:55:39.836Z,76.74
2023-05-19T23:58:06.672Z,78.24
